Pathein, Burma
Current Conditions -  °F | °C
As of 1:30 PM on Wednesday 22 Oct 2014 (Local Time) from VYYY Reporting Station
Broken Clouds Broken Clouds  
Wind Chill: 29°   Ceiling: 1600
Heat Index: 34°   Visibility: 4mi
Dew Point: 24°   Wind: 2mph
Humidity: 74%   Direction: 10°N
Pressure: 29.88"   Gusts: NA
Location:  16.78°N, 94.73°E
Report Text: VYYY 220730Z 01002KT 6000 BKN016 FEW020CB BKN110 29/24 Q1012 CB-SW
Loading
Personal Weather Stations






























Interactive Weather Map
Tropical Storm Tracking
New forecast layout! Learn more

10-Day Weather Forecast

Advertisements
Track Severe Weather on mobile